<?xml version="1.0" encoding="UTF-8" standalone="no" ?>
<gpx xmlns="http://www.topografix.com/GPX/1/1" xmlns:xsi="http://www.w3.org/2001/XMLSchema-instance" xsi:schemaLocation="http://www.topografix.com/GPX/1/1 http://www.topografix.com/GPX/1/1/gpx.xsd" version="1.1" creator="VisuGPX - https://www.visugpx.com">
  <metadata>
    <name>13819626-Oingt GR3</name>
  </metadata>
  <trk>
    <name><![CDATA[13819626-Oingt GR3]]></name>
    <trkseg>
      <trkpt lat="45.94789" lon="4.53306">
        <ele>286</ele>
        <time>2021-12-18T17:23:32Z</time>
      </trkpt>
      <trkpt lat="45.94827" lon="4.53354">
        <ele>292</ele>
        <time>2021-12-18T17:24:39Z</time>
      </trkpt>
      <trkpt lat="45.94907" lon="4.53269">
        <ele>301</ele>
        <time>2021-12-18T17:26:52Z</time>
      </trkpt>
      <trkpt lat="45.95051" lon="4.53269">
        <ele>315</ele>
        <time>2021-12-18T17:30:04Z</time>
      </trkpt>
      <trkpt lat="45.95123" lon="4.53597">
        <ele>338</ele>
        <time>2021-12-18T17:35:24Z</time>
      </trkpt>
      <trkpt lat="45.95158" lon="4.53737">
        <ele>341</ele>
        <time>2021-12-18T17:37:42Z</time>
      </trkpt>
      <trkpt lat="45.95152" lon="4.53834">
        <ele>346</ele>
        <time>2021-12-18T17:39:12Z</time>
      </trkpt>
      <trkpt lat="45.95055" lon="4.53755">
        <ele>343</ele>
        <time>2021-12-18T17:41:41Z</time>
      </trkpt>
      <trkpt lat="45.94907" lon="4.53773">
        <ele>345</ele>
        <time>2021-12-18T17:44:59Z</time>
      </trkpt>
      <trkpt lat="45.95009" lon="4.53822">
        <ele>358</ele>
        <time>2021-12-18T17:47:22Z</time>
      </trkpt>
      <trkpt lat="45.95055" lon="4.54034">
        <ele>375</ele>
        <time>2021-12-18T17:50:48Z</time>
      </trkpt>
      <trkpt lat="45.95133" lon="4.54173">
        <ele>383</ele>
        <time>2021-12-18T17:53:34Z</time>
      </trkpt>
      <trkpt lat="45.95202" lon="4.54206">
        <ele>385</ele>
        <time>2021-12-18T17:55:11Z</time>
      </trkpt>
      <trkpt lat="45.95297" lon="4.54466">
        <ele>390</ele>
        <time>2021-12-18T17:59:44Z</time>
      </trkpt>
      <trkpt lat="45.9529" lon="4.54725">
        <ele>397</ele>
        <time>2021-12-18T18:03:44Z</time>
      </trkpt>
      <trkpt lat="45.9537" lon="4.54794">
        <ele>406</ele>
        <time>2021-12-18T18:05:49Z</time>
      </trkpt>
      <trkpt lat="45.954" lon="4.54863">
        <ele>410</ele>
        <time>2021-12-18T18:07:04Z</time>
      </trkpt>
      <trkpt lat="45.95415" lon="4.54989">
        <ele>412</ele>
        <time>2021-12-18T18:09:03Z</time>
      </trkpt>
      <trkpt lat="45.95639" lon="4.55158">
        <ele>427</ele>
        <time>2021-12-18T18:14:40Z</time>
      </trkpt>
      <trkpt lat="45.95789" lon="4.55314">
        <ele>445</ele>
        <time>2021-12-18T18:18:47Z</time>
      </trkpt>
      <trkpt lat="45.95827" lon="4.55343">
        <ele>448</ele>
        <time>2021-12-18T18:19:45Z</time>
      </trkpt>
      <trkpt lat="45.95884" lon="4.55324">
        <ele>459</ele>
        <time>2021-12-18T18:21:03Z</time>
      </trkpt>
      <trkpt lat="45.96037" lon="4.55353">
        <ele>466</ele>
        <time>2021-12-18T18:24:29Z</time>
      </trkpt>
      <trkpt lat="45.96148" lon="4.5531">
        <ele>472</ele>
        <time>2021-12-18T18:27:02Z</time>
      </trkpt>
      <trkpt lat="45.96296" lon="4.55411">
        <ele>483</ele>
        <time>2021-12-18T18:30:41Z</time>
      </trkpt>
      <trkpt lat="45.96376" lon="4.55566">
        <ele>487</ele>
        <time>2021-12-18T18:33:40Z</time>
      </trkpt>
      <trkpt lat="45.96343" lon="4.55613">
        <ele>486</ele>
        <time>2021-12-18T18:34:42Z</time>
      </trkpt>
      <trkpt lat="45.96321" lon="4.55711">
        <ele>488</ele>
        <time>2021-12-18T18:36:17Z</time>
      </trkpt>
      <trkpt lat="45.96313" lon="4.55808">
        <ele>492</ele>
        <time>2021-12-18T18:37:48Z</time>
      </trkpt>
      <trkpt lat="45.96213" lon="4.55837">
        <ele>491</ele>
        <time>2021-12-18T18:40:04Z</time>
      </trkpt>
      <trkpt lat="45.96113" lon="4.55981">
        <ele>497</ele>
        <time>2021-12-18T18:43:13Z</time>
      </trkpt>
      <trkpt lat="45.96193" lon="4.55978">
        <ele>506</ele>
        <time>2021-12-18T18:45:00Z</time>
      </trkpt>
      <trkpt lat="45.96218" lon="4.56108">
        <ele>515</ele>
        <time>2021-12-18T18:47:05Z</time>
      </trkpt>
      <trkpt lat="45.96253" lon="4.5623">
        <ele>522</ele>
        <time>2021-12-18T18:49:07Z</time>
      </trkpt>
      <trkpt lat="45.96241" lon="4.56335">
        <ele>518</ele>
        <time>2021-12-18T18:50:46Z</time>
      </trkpt>
      <trkpt lat="45.96233" lon="4.564">
        <ele>516</ele>
        <time>2021-12-18T18:51:47Z</time>
      </trkpt>
      <trkpt lat="45.9621" lon="4.56494">
        <ele>516</ele>
        <time>2021-12-18T18:53:20Z</time>
      </trkpt>
      <trkpt lat="45.96128" lon="4.56523">
        <ele>508</ele>
        <time>2021-12-18T18:55:12Z</time>
      </trkpt>
      <trkpt lat="45.96047" lon="4.56551">
        <ele>501</ele>
        <time>2021-12-18T18:57:03Z</time>
      </trkpt>
      <trkpt lat="45.95977" lon="4.56663">
        <ele>498</ele>
        <time>2021-12-18T18:59:23Z</time>
      </trkpt>
      <trkpt lat="45.95997" lon="4.5671">
        <ele>494</ele>
        <time>2021-12-18T19:00:14Z</time>
      </trkpt>
      <trkpt lat="45.95887" lon="4.56772">
        <ele>477</ele>
        <time>2021-12-18T19:02:52Z</time>
      </trkpt>
      <trkpt lat="45.95872" lon="4.56811">
        <ele>470</ele>
        <time>2021-12-18T19:03:33Z</time>
      </trkpt>
      <trkpt lat="45.95839" lon="4.56811">
        <ele>466</ele>
        <time>2021-12-18T19:04:17Z</time>
      </trkpt>
      <trkpt lat="45.95787" lon="4.5684">
        <ele>452</ele>
        <time>2021-12-18T19:05:32Z</time>
      </trkpt>
      <trkpt lat="45.95699" lon="4.56811">
        <ele>427</ele>
        <time>2021-12-18T19:07:32Z</time>
      </trkpt>
      <trkpt lat="45.95659" lon="4.56829">
        <ele>417</ele>
        <time>2021-12-18T19:08:28Z</time>
      </trkpt>
      <trkpt lat="45.95573" lon="4.56808">
        <ele>397</ele>
        <time>2021-12-18T19:10:25Z</time>
      </trkpt>
      <trkpt lat="45.95473" lon="4.56797">
        <ele>379</ele>
        <time>2021-12-18T19:12:38Z</time>
      </trkpt>
      <trkpt lat="45.95383" lon="4.568">
        <ele>363</ele>
        <time>2021-12-18T19:14:39Z</time>
      </trkpt>
      <trkpt lat="45.9536" lon="4.56772">
        <ele>360</ele>
        <time>2021-12-18T19:15:19Z</time>
      </trkpt>
      <trkpt lat="45.9527" lon="4.568">
        <ele>355</ele>
        <time>2021-12-18T19:17:22Z</time>
      </trkpt>
      <trkpt lat="45.95247" lon="4.56977">
        <ele>369</ele>
        <time>2021-12-18T19:20:09Z</time>
      </trkpt>
      <trkpt lat="45.9527" lon="4.57075">
        <ele>370</ele>
        <time>2021-12-18T19:21:45Z</time>
      </trkpt>
      <trkpt lat="45.95373" lon="4.57129">
        <ele>366</ele>
        <time>2021-12-18T19:24:11Z</time>
      </trkpt>
      <trkpt lat="45.9547" lon="4.57298">
        <ele>369</ele>
        <time>2021-12-18T19:27:34Z</time>
      </trkpt>
      <trkpt lat="45.95548" lon="4.57327">
        <ele>369</ele>
        <time>2021-12-18T19:29:22Z</time>
      </trkpt>
      <trkpt lat="45.95633" lon="4.57356">
        <ele>375</ele>
        <time>2021-12-18T19:31:18Z</time>
      </trkpt>
      <trkpt lat="45.95744" lon="4.57501">
        <ele>383</ele>
        <time>2021-12-18T19:34:38Z</time>
      </trkpt>
      <trkpt lat="45.95854" lon="4.57699">
        <ele>387</ele>
        <time>2021-12-18T19:38:34Z</time>
      </trkpt>
      <trkpt lat="45.95812" lon="4.57829">
        <ele>403</ele>
        <time>2021-12-18T19:40:47Z</time>
      </trkpt>
      <trkpt lat="45.95811" lon="4.57765">
        <ele>400</ele>
        <time>2021-12-18T19:41:46Z</time>
      </trkpt>
      <trkpt lat="45.95805" lon="4.57688">
        <ele>395</ele>
        <time>2021-12-18T19:42:58Z</time>
      </trkpt>
      <trkpt lat="45.95763" lon="4.57688">
        <ele>407</ele>
        <time>2021-12-18T19:43:54Z</time>
      </trkpt>
      <trkpt lat="45.95667" lon="4.57636">
        <ele>423</ele>
        <time>2021-12-18T19:46:11Z</time>
      </trkpt>
      <trkpt lat="45.95673" lon="4.57735">
        <ele>429</ele>
        <time>2021-12-18T19:47:43Z</time>
      </trkpt>
      <trkpt lat="45.95679" lon="4.57843">
        <ele>434</ele>
        <time>2021-12-18T19:49:23Z</time>
      </trkpt>
      <trkpt lat="45.95633" lon="4.57865">
        <ele>435</ele>
        <time>2021-12-18T19:50:28Z</time>
      </trkpt>
      <trkpt lat="45.95528" lon="4.58042">
        <ele>451</ele>
        <time>2021-12-18T19:54:04Z</time>
      </trkpt>
      <trkpt lat="45.95506" lon="4.581">
        <ele>461</ele>
        <time>2021-12-18T19:55:05Z</time>
      </trkpt>
      <trkpt lat="45.95435" lon="4.58201">
        <ele>479</ele>
        <time>2021-12-18T19:57:19Z</time>
      </trkpt>
      <trkpt lat="45.95307" lon="4.58204">
        <ele>494</ele>
        <time>2021-12-18T20:00:09Z</time>
      </trkpt>
      <trkpt lat="45.95114" lon="4.58211">
        <ele>508</ele>
        <time>2021-12-18T20:04:27Z</time>
      </trkpt>
      <trkpt lat="45.94989" lon="4.5824">
        <ele>517</ele>
        <time>2021-12-18T20:07:16Z</time>
      </trkpt>
      <trkpt lat="45.94898" lon="4.58327">
        <ele>527</ele>
        <time>2021-12-18T20:09:42Z</time>
      </trkpt>
    </trkseg>
  </trk>
</gpx>